Time;durP1;ratioP1;P1;durP2;ratioP2;P2;SDS_P1;SDS_P2;PMS_P1;PMS_P2;Temp;Humidity;BMP_temperature;BMP_pressure;BME280_temperature;BME280_humidity;BME280_pressure;Samples;Min_cycle;Max_cycle;Signal;HPM_P1;HPM_P2
2023/08/12 00:00:53;;;;;;;10.30;8.83;;;25.60;99.90;;;;;;6069501;23;20412;-84
2023/08/12 00:03:45;;;;;;;10.77;9.23;;;25.10;99.90;;;;;;6102870;23;20439;-84
2023/08/12 00:09:52;;;;;;;;;;;;;;;;;;;;;
2023/08/12 00:12:33;;;;;;;10.43;8.63;;;25.20;99.90;;;;;;6127767;23;20749;-86
2023/08/12 00:15:23;;;;;;;9.80;8.10;;;24.40;99.90;;;;;;6125211;23;20505;-87
2023/08/12 00:18:15;;;;;;;9.30;8.30;;;24.70;99.90;;;;;;6102335;23;20458;-85
2023/08/12 00:21:45;;;;;;;8.40;7.70;;;24.90;99.90;;;;;;6102260;23;20523;-85
2023/08/12 00:24:42;;;;;;;8.70;7.63;;;23.50;99.90;;;;;;6005215;23;20842;-85
2023/08/12 00:27:47;;;;;;;10.43;8.53;;;24.90;99.90;;;;;;6119458;23;20411;-84
2023/08/12 00:30:40;;;;;;;9.03;8.13;;;24.70;99.90;;;;;;6102748;23;20474;-84
2023/08/12 00:33:42;;;;;;;9.17;8.23;;;25.30;99.90;;;;;;6109279;23;20514;-86
2023/08/12 00:36:37;;;;;;;9.13;8.33;;;25.10;99.90;;;;;;6104108;23;20419;-85
2023/08/12 00:39:47;;;;;;;9.00;8.10;;;24.50;99.90;;;;;;6105924;23;21308;-84
2023/08/12 00:42:22;;;;;;;8.30;7.50;;;24.40;99.90;;;;;;6102935;23;20412;-84
2023/08/12 00:45:01;;;;;;;10.87;8.27;;;24.80;99.90;;;;;;6108786;23;21255;-84
2023/08/12 00:48:04;;;;;;;10.43;8.90;;;24.50;99.90;;;;;;6055363;23;20435;-83
2023/08/12 00:50:54;;;;;;;9.37;8.47;;;25.00;99.90;;;;;;6135529;23;20434;-84
2023/08/12 00:53:36;;;;;;;9.60;8.80;;;25.10;99.90;;;;;;6144388;23;20428;-84
2023/08/12 00:56:26;;;;;;;9.97;8.73;;;24.10;99.90;;;;;;6143964;23;20411;-85
2023/08/12 00:59:10;;;;;;;11.37;10.13;;;24.40;99.90;;;;;;6145453;23;20435;-84
2023/08/12 01:02:13;;;;;;;8.80;8.00;;;24.20;99.90;;;;;;6123371;23;20396;-85
2023/08/12 01:04:55;;;;;;;13.33;10.23;;;23.60;99.90;;;;;;6112256;23;20428;-85
2023/08/12 01:07:34;;;;;;;12.10;10.63;;;24.60;99.90;;;;;;6121881;23;20424;-85
2023/08/12 01:10:26;;;;;;;10.47;9.30;;;24.50;99.90;;;;;;6107805;23;20423;-86
2023/08/12 01:13:33;;;;;;;12.80;9.97;;;23.70;99.90;;;;;;6089528;23;20415;-86
2023/08/12 01:16:24;;;;;;;10.60;9.50;;;23.90;99.90;;;;;;6115405;23;20503;-85
2023/08/12 01:22:36;;;;;;;13.10;9.93;;;23.70;99.90;;;;;;6123815;23;20406;-83
2023/08/12 01:25:32;;;;;;;10.50;8.80;;;24.30;99.90;;;;;;6090452;23;20439;-82
2023/08/12 01:28:10;;;;;;;11.30;10.20;;;24.50;99.90;;;;;;6090275;23;20426;-84
2023/08/12 01:31:14;;;;;;;13.13;11.73;;;23.90;99.90;;;;;;6106157;23;20384;-84
2023/08/12 01:34:35;;;;;;;13.53;10.43;;;23.80;99.90;;;;;;6103516;23;21008;-83
2023/08/12 01:37:30;;;;;;;14.00;12.40;;;24.60;99.90;;;;;;6086832;23;20392;-84
2023/08/12 01:40:46;;;;;;;15.90;14.30;;;24.40;99.90;;;;;;6102998;23;20410;-83
2023/08/12 01:43:28;;;;;;;16.43;13.70;;;23.80;99.90;;;;;;6122325;23;20443;-85
2023/08/12 01:46:06;;;;;;;17.73;15.83;;;24.00;99.90;;;;;;6099675;23;20797;-84
2023/08/12 01:48:45;;;;;;;17.83;15.97;;;23.90;99.90;;;;;;6124230;23;20420;-84
2023/08/12 01:51:29;;;;;;;17.00;13.90;;;24.50;99.90;;;;;;6099750;23;20434;-83
2023/08/12 01:54:06;;;;;;;17.80;15.53;;;24.10;99.90;;;;;;6120677;23;20427;-85
2023/08/12 01:56:56;;;;;;;16.73;12.83;;;23.20;99.90;;;;;;6080985;23;20571;-86
2023/08/12 02:00:06;;;;;;;15.97;13.60;;;24.20;99.90;;;;;;6098841;23;20539;-84
2023/08/12 02:03:06;;;;;;;20.37;15.50;;;22.80;99.90;;;;;;6036852;23;20487;-85
2023/08/12 02:06:02;;;;;;;15.93;13.50;;;23.40;99.90;;;;;;6072976;23;20550;-84
2023/08/12 02:09:22;;;;;;;15.63;13.23;;;22.90;99.90;;;;;;6097837;23;20412;-83
2023/08/12 02:12:28;;;;;;;16.57;13.07;;;23.20;99.90;;;;;;6099302;23;20420;-82
2023/08/12 02:15:14;;;;;;;12.97;11.63;;;23.70;99.90;;;;;;6088609;23;20435;-85
2023/08/12 02:18:03;;;;;;;15.53;13.10;;;23.10;99.90;;;;;;6102171;23;20486;-86
2023/08/12 02:21:02;;;;;;;17.10;13.17;;;24.50;99.90;;;;;;6100017;23;20442;-86
2023/08/12 02:23:45;;;;;;;15.47;12.60;;;23.50;99.90;;;;;;6108728;23;20476;-86
2023/08/12 02:26:41;;;;;;;13.70;12.33;;;23.70;99.90;;;;;;6123040;23;20476;-86
2023/08/12 02:29:39;;;;;;;15.50;12.03;;;23.50;99.90;;;;;;6073686;23;20427;-85
2023/08/12 02:32:18;;;;;;;14.40;9.90;;;23.50;99.90;;;;;;6126070;23;20415;-84
2023/08/12 02:34:58;;;;;;;12.97;11.63;;;23.70;99.90;;;;;;6113783;23;20443;-86
2023/08/12 02:37:37;;;;;;;15.70;12.60;;;23.10;99.90;;;;;;6101957;23;20423;-84
2023/08/12 02:40:30;;;;;;;12.20;11.10;;;23.40;99.90;;;;;;6102197;23;20428;-85
2023/08/12 02:43:37;;;;;;;13.03;11.73;;;23.20;99.90;;;;;;6124234;23;20870;-82
2023/08/12 02:46:23;;;;;;;13.10;11.73;;;23.20;99.90;;;;;;6098580;23;20471;-86
2023/08/12 02:48:52;;;;;;;13.47;11.50;;;22.80;99.90;;;;;;6097968;23;20412;-84
2023/08/12 02:51:58;;;;;;;14.30;11.47;;;22.90;99.90;;;;;;6101255;23;20423;-84
2023/08/12 02:55:01;;;;;;;;;;;;;;;;;;;;;
2023/08/12 02:57:36;;;;;;;10.07;8.97;;;23.10;99.90;;;;;;6122522;23;20426;-84
2023/08/12 03:03:36;;;;;;;9.20;8.20;;;22.90;99.90;;;;;;6106297;23;20435;-85
2023/08/12 03:06:40;;;;;;;7.93;7.17;;;23.00;99.90;;;;;;6098780;23;20527;-84
2023/08/12 03:09:33;;;;;;;9.20;7.60;;;22.80;99.90;;;;;;6098504;23;20411;-85
2023/08/12 03:12:16;;;;;;;9.53;8.53;;;23.20;99.90;;;;;;6122349;23;20439;-85
2023/08/12 03:15:02;;;;;;;;;;;;;;;;;;;;;
2023/08/12 03:17:58;;;;;;;11.87;10.07;;;23.70;99.90;;;;;;6124092;23;20466;-85
2023/08/12 03:21:14;;;;;;;11.00;9.87;;;23.30;99.90;;;;;;6130693;23;20398;-82
2023/08/12 03:24:05;;;;;;;11.20;9.67;;;22.90;99.90;;;;;;6134347;23;20403;-85
2023/08/12 03:26:55;;;;;;;10.90;9.60;;;23.10;99.90;;;;;;6112316;23;20399;-85
2023/08/12 03:29:52;;;;;;;10.33;8.70;;;22.30;99.90;;;;;;6130123;23;20411;-83
2023/08/12 03:32:39;;;;;;;11.27;9.50;;;23.30;99.90;;;;;;6113938;23;20415;-86
2023/08/12 03:35:51;;;;;;;11.00;8.60;;;23.50;99.90;;;;;;6028113;23;20422;-83
2023/08/12 03:42:18;;;;;;;10.33;9.33;;;22.80;99.90;;;;;;6050902;23;20411;-85
2023/08/12 03:45:00;;;;;;;11.43;10.33;;;23.10;99.90;;;;;;6042358;23;20444;-83
2023/08/12 03:47:56;;;;;;;11.73;10.50;;;22.60;99.90;;;;;;5990433;23;20467;-82
2023/08/12 03:50:52;;;;;;;11.07;8.53;;;23.10;99.90;;;;;;6013254;23;20465;-84
2023/08/12 03:53:34;;;;;;;9.93;8.93;;;22.10;99.90;;;;;;6025226;23;20442;-84
2023/08/12 03:56:15;;;;;;;8.87;7.97;;;23.00;99.90;;;;;;6054865;23;20437;-84
2023/08/12 03:59:07;;;;;;;8.13;7.40;;;22.80;99.90;;;;;;6029950;23;20474;-84
2023/08/12 04:02:18;;;;;;;;;;;;;;;;;;;;;
2023/08/12 04:05:24;;;;;;;8.33;7.37;;;21.90;99.90;;;;;;6050680;23;20728;-85
2023/08/12 04:08:23;;;;;;;;;;;;;;;;;;;;;
2023/08/12 04:11:49;;;;;;;7.27;6.60;;;22.60;99.90;;;;;;6032448;23;20470;-82
2023/08/12 04:14:51;;;;;;;9.73;7.43;;;22.30;99.90;;;;;;6099535;23;20450;-84
2023/08/12 04:18:03;;;;;;;;;;;;;;;;;;;;;
2023/08/12 04:20:57;;;;;;;7.47;6.77;;;22.40;99.90;;;;;;6033978;23;20406;-85
2023/08/12 04:24:07;;;;;;;10.13;7.03;;;22.30;99.90;;;;;;5959656;23;20415;-83
2023/08/12 04:30:25;;;;;;;7.77;7.03;;;22.30;99.90;;;;;;6025432;23;20453;-83
2023/08/12 04:36:00;;;;;;;8.03;7.33;;;22.20;99.90;;;;;;6131216;23;20462;-85
2023/08/12 04:38:59;;;;;;;8.67;7.87;;;22.20;99.90;;;;;;6115377;23;20443;-83
2023/08/12 04:41:41;;;;;;;7.10;6.50;;;22.40;99.90;;;;;;6115122;23;20423;-85
2023/08/12 04:44:24;;;;;;;7.67;6.97;;;22.10;99.90;;;;;;6109041;23;20492;-85
2023/08/12 04:47:49;;;;;;;7.27;6.53;;;21.20;99.90;;;;;;6121901;23;21271;-85
2023/08/12 04:50:27;;;;;;;8.23;7.27;;;22.00;99.90;;;;;;6129020;23;20418;-84
2023/08/12 04:53:39;;;;;;;7.30;6.43;;;22.20;99.90;;;;;;6127035;23;21167;-85
2023/08/12 04:59:51;;;;;;;8.43;7.63;;;22.00;99.90;;;;;;6131969;23;20445;-84
2023/08/12 05:02:51;;;;;;;7.23;6.50;;;22.10;99.90;;;;;;6038818;23;20562;-83
2023/08/12 05:05:46;;;;;;;9.13;6.87;;;22.40;99.90;;;;;;6132566;23;20427;-84
2023/08/12 05:09:04;;;;;;;8.60;6.60;;;22.20;99.90;;;;;;6129658;23;20415;-84
2023/08/12 05:11:53;;;;;;;6.80;6.20;;;22.60;99.90;;;;;;6093724;23;20395;-84
2023/08/12 05:14:47;;;;;;;7.33;6.63;;;22.60;99.90;;;;;;6156645;23;20480;-85
2023/08/12 05:17:55;;;;;;;7.60;6.90;;;22.40;99.90;;;;;;6127155;23;20438;-84
2023/08/12 05:24:04;;;;;;;9.00;6.40;;;22.70;99.90;;;;;;6158559;23;20423;-86
2023/08/12 05:26:52;;;;;;;8.93;5.87;;;22.50;99.90;;;;;;6157502;23;20422;-86
2023/08/12 05:29:38;;;;;;;8.87;7.70;;;22.50;99.90;;;;;;6132933;23;20410;-85
2023/08/12 05:32:22;;;;;;;6.43;5.83;;;21.80;99.90;;;;;;6131418;23;20415;-84
2023/08/12 05:35:25;;;;;;;6.40;5.80;;;22.00;99.90;;;;;;6130668;23;20439;-84
2023/08/12 05:38:21;;;;;;;6.63;6.03;;;22.60;99.90;;;;;;6128593;23;20410;-83
2023/08/12 05:41:31;;;;;;;6.83;6.17;;;22.00;99.90;;;;;;6135507;23;20399;-84
2023/08/12 05:44:40;;;;;;;7.63;6.10;;;22.30;99.90;;;;;;6115414;23;20414;-84
2023/08/12 05:47:36;;;;;;;6.37;5.77;;;22.30;99.90;;;;;;6128273;23;20394;-84
2023/08/12 05:50:21;;;;;;;7.10;5.87;;;23.50;99.90;;;;;;6125818;23;20425;-85
2023/08/12 05:53:04;;;;;;;6.47;5.87;;;22.50;99.90;;;;;;6125274;23;20502;-85
2023/08/12 05:55:54;;;;;;;6.77;6.13;;;22.60;99.90;;;;;;6147705;23;20654;-83
2023/08/12 05:58:32;;;;;;;7.37;6.77;;;22.00;99.90;;;;;;6124861;23;20443;-83
2023/08/12 06:01:22;;;;;;;8.77;7.87;;;22.30;99.90;;;;;;6125371;23;20410;-83
2023/08/12 06:04:01;;;;;;;8.17;7.40;;;22.50;99.90;;;;;;6120628;23;20450;-84
2023/08/12 06:06:54;;;;;;;7.63;6.93;;;22.70;99.90;;;;;;6122209;23;20414;-83
2023/08/12 06:09:49;;;;;;;8.50;7.73;;;22.40;99.90;;;;;;6127449;23;20414;-83
2023/08/12 06:12:25;;;;;;;9.00;7.83;;;22.10;99.90;;;;;;6135864;23;20415;-84
2023/08/12 06:15:01;;;;;;;8.17;7.37;;;22.10;99.90;;;;;;6138062;23;20438;-85
2023/08/12 06:17:55;;;;;;;8.60;7.37;;;21.20;99.90;;;;;;6165782;23;20702;-83
2023/08/12 06:20:52;;;;;;;8.00;7.33;;;22.00;99.90;;;;;;6136453;23;20455;-84
2023/08/12 06:23:50;;;;;;;7.33;6.77;;;22.50;99.90;;;;;;6140208;23;20427;-83
2023/08/12 06:26:37;;;;;;;6.47;5.87;;;20.80;99.90;;;;;;6155273;23;20710;-83
2023/08/12 06:29:28;;;;;;;7.27;5.93;;;22.40;99.90;;;;;;6135268;23;20468;-85
2023/08/12 06:32:18;;;;;;;;;;;;;;;;;;;;;
2023/08/12 06:35:07;;;;;;;6.60;5.67;;;22.80;99.90;;;;;;6158419;23;20446;-84
2023/08/12 06:37:51;;;;;;;5.73;5.17;;;21.80;99.90;;;;;;6138665;23;20406;-87
2023/08/12 06:40:35;;;;;;;5.50;5.00;;;22.30;99.90;;;;;;6138020;23;20467;-81
2023/08/12 06:43:33;;;;;;;5.23;4.70;;;22.70;99.90;;;;;;6164541;23;20407;-86
2023/08/12 06:46:21;;;;;;;3.87;3.33;;;22.60;99.90;;;;;;6145424;23;20474;-86
2023/08/12 06:49:07;;;;;;;4.27;3.83;;;22.60;99.90;;;;;;6139364;23;20421;-84
2023/08/12 06:51:45;;;;;;;3.67;3.37;;;22.60;99.90;;;;;;6145676;23;20768;-86
2023/08/12 06:54:32;;;;;;;3.50;3.20;;;21.90;99.90;;;;;;6165258;23;20443;-84
2023/08/12 06:57:25;;;;;;;4.17;3.33;;;21.80;99.90;;;;;;6156578;23;20410;-85
2023/08/12 07:00:26;;;;;;;4.13;3.77;;;21.90;99.90;;;;;;6127929;23;20466;-85
2023/08/12 07:02:59;;;;;;;6.13;4.47;;;22.00;99.90;;;;;;6130092;23;20409;-84
2023/08/12 07:05:40;;;;;;;4.00;3.13;;;23.10;99.90;;;;;;6136475;23;20434;-85
2023/08/12 07:08:20;;;;;;;5.13;4.10;;;22.60;99.90;;;;;;6136976;23;20406;-86
2023/08/12 07:11:12;;;;;;;4.03;3.70;;;22.00;99.90;;;;;;6135610;23;20417;-83
2023/08/12 07:13:54;;;;;;;3.70;3.40;;;22.30;99.90;;;;;;6136422;23;20441;-85
2023/08/12 07:16:42;;;;;;;5.13;3.77;;;22.50;99.90;;;;;;6132753;23;20745;-85
2023/08/12 07:22:19;;;;;;;5.80;3.70;;;21.90;99.90;;;;;;6156294;23;20418;-83
2023/08/12 07:25:11;;;;;;;4.33;3.93;;;22.30;99.90;;;;;;6129700;23;20425;-84
2023/08/12 07:27:56;;;;;;;4.07;3.77;;;22.40;99.90;;;;;;6130073;23;20417;-83
2023/08/12 07:30:54;;;;;;;6.87;3.10;;;22.50;99.90;;;;;;6152950;23;20438;-84
2023/08/12 07:33:48;;;;;;;4.87;4.13;;;22.70;99.90;;;;;;6153703;23;20429;-86
2023/08/12 07:36:35;;;;;;;3.80;3.50;;;22.80;99.90;;;;;;6128948;23;20892;-85
2023/08/12 07:39:14;;;;;;;4.03;3.73;;;23.00;99.90;;;;;;6131240;23;20438;-85
2023/08/12 07:42:00;;;;;;;4.03;3.63;;;23.10;99.90;;;;;;6153707;23;20410;-86
2023/08/12 07:44:42;;;;;;;4.67;3.90;;;22.70;99.90;;;;;;6130310;23;20514;-83
2023/08/12 07:47:28;;;;;;;4.20;3.83;;;22.40;99.90;;;;;;6130163;23;20425;-86
2023/08/12 07:50:10;;;;;;;2.97;2.77;;;22.80;99.90;;;;;;6131766;23;20411;-86
2023/08/12 07:52:46;;;;;;;2.93;2.73;;;23.20;99.90;;;;;;6135702;23;20407;-86
2023/08/12 07:55:14;;;;;;;2.50;2.30;;;24.20;99.90;;;;;;6129754;23;20592;-83
2023/08/12 07:57:56;;;;;;;2.53;2.20;;;25.40;99.90;;;;;;6156451;23;20411;-84
2023/08/12 08:00:41;;;;;;;2.57;2.37;;;25.70;99.90;;;;;;6142680;23;20443;-83
2023/08/12 08:03:27;;;;;;;2.17;2.00;;;26.60;99.90;;;;;;6146733;23;20434;-86
2023/08/12 08:05:56;;;;;;;2.53;2.20;;;27.10;99.50;;;;;;6140620;23;20422;-83
2023/08/12 08:08:23;;;;;;;3.30;2.77;;;26.20;99.90;;;;;;6162686;23;20402;-84
2023/08/12 08:11:03;;;;;;;2.50;2.30;;;25.30;99.90;;;;;;6160321;23;20461;-86
2023/08/12 08:14:07;;;;;;;2.43;2.23;;;25.80;99.90;;;;;;6133926;23;20406;-84
2023/08/12 08:16:50;;;;;;;2.83;2.30;;;24.60;99.90;;;;;;6134453;23;20445;-85
2023/08/12 08:19:50;;;;;;;3.60;2.73;;;24.70;99.90;;;;;;6132206;23;20453;-85
2023/08/12 08:22:24;;;;;;;2.90;2.70;;;23.50;99.90;;;;;;6133979;23;20422;-85
2023/08/12 08:24:58;;;;;;;4.10;2.87;;;24.70;99.90;;;;;;6134712;23;20462;-86
2023/08/12 08:27:25;;;;;;;2.43;2.23;;;24.80;99.90;;;;;;6158862;23;20414;-84
2023/08/12 08:30:00;;;;;;;4.00;2.40;;;25.60;99.90;;;;;;6156927;23;20450;-86
2023/08/12 08:32:41;;;;;;;2.50;2.30;;;24.20;99.90;;;;;;6130438;23;20414;-84
2023/08/12 08:35:28;;;;;;;3.37;2.50;;;23.40;99.90;;;;;;6130873;23;20984;-82
2023/08/12 08:37:55;;;;;;;2.73;2.53;;;24.00;99.90;;;;;;6129734;23;20407;-83
2023/08/12 08:40:39;;;;;;;3.07;2.83;;;23.90;99.90;;;;;;6132659;23;20478;-83
2023/08/12 08:43:24;;;;;;;2.50;2.30;;;24.10;99.90;;;;;;6131118;23;20418;-83
2023/08/12 08:46:14;;;;;;;3.00;2.43;;;24.00;99.90;;;;;;6120272;23;20447;-84
2023/08/12 08:49:01;;;;;;;2.50;2.30;;;24.00;99.90;;;;;;6128795;23;20419;-83
2023/08/12 08:51:53;;;;;;;2.20;2.00;;;23.90;99.90;;;;;;6131994;23;20418;-85
2023/08/12 08:54:34;;;;;;;12.27;2.77;;;23.90;99.90;;;;;;6156492;23;20494;-82
2023/08/12 08:57:28;;;;;;;2.67;2.40;;;23.00;99.90;;;;;;6133620;23;20792;-83
2023/08/12 09:00:30;;;;;;;3.63;2.43;;;23.30;99.90;;;;;;6134395;23;20450;-84
2023/08/12 09:03:16;;;;;;;2.93;2.23;;;23.40;99.90;;;;;;6131153;23;21190;-85
2023/08/12 09:06:00;;;;;;;2.27;2.03;;;23.30;99.90;;;;;;6132149;23;20511;-83
2023/08/12 09:08:44;;;;;;;3.37;2.57;;;23.90;99.90;;;;;;6129300;23;20399;-84
2023/08/12 09:11:20;;;;;;;2.20;2.00;;;23.50;99.90;;;;;;6128665;23;20490;-82
2023/08/12 09:14:13;;;;;;;4.03;2.13;;;24.90;99.90;;;;;;6127059;23;20798;-82
2023/08/12 09:16:59;;;;;;;2.53;2.33;;;24.90;99.90;;;;;;6129597;23;20534;-84
2023/08/12 09:19:43;;;;;;;2.03;1.83;;;24.60;99.90;;;;;;6124532;23;20910;-82
2023/08/12 09:22:32;;;;;;;2.53;2.10;;;24.60;99.90;;;;;;6146277;23;20474;-85
2023/08/12 09:25:50;;;;;;;2.30;2.10;;;24.10;99.90;;;;;;6091564;23;20423;-83
2023/08/12 09:28:38;;;;;;;2.53;2.33;;;24.70;99.90;;;;;;6108749;23;20403;-84
2023/08/12 09:31:32;;;;;;;4.00;2.23;;;24.60;99.90;;;;;;6127203;23;20407;-82
2023/08/12 09:34:24;;;;;;;2.77;2.30;;;24.80;99.90;;;;;;6123133;23;20397;-85
2023/08/12 09:37:12;;;;;;;2.97;2.30;;;24.80;99.90;;;;;;6127767;23;20784;-84
2023/08/12 09:39:51;;;;;;;2.77;2.20;;;25.60;99.90;;;;;;6127749;23;20453;-86
2023/08/12 09:42:45;;;;;;;1.90;1.80;;;25.70;99.90;;;;;;6129824;23;20470;-83
2023/08/12 09:45:25;;;;;;;3.10;1.90;;;25.90;99.90;;;;;;6127465;23;20454;-86
2023/08/12 09:48:29;;;;;;;;;;;;;;;;;;;;;
2023/08/12 09:51:41;;;;;;;2.00;1.80;;;26.00;99.90;;;;;;6145659;23;20523;-84
2023/08/12 09:54:46;;;;;;;;;;;;;;;;;;;;;
2023/08/12 09:57:44;;;;;;;5.57;2.00;;;25.80;99.90;;;;;;6153041;23;20411;-83
2023/08/12 10:00:27;;;;;;;2.43;2.23;;;25.40;99.90;;;;;;6145983;23;20449;-86
2023/08/12 10:03:33;;;;;;;3.57;2.10;;;25.00;99.90;;;;;;6144641;23;20390;-86
2023/08/12 10:06:43;;;;;;;2.10;1.87;;;25.30;99.90;;;;;;6123531;23;20400;-83
2023/08/12 10:09:58;;;;;;;2.77;2.03;;;25.30;99.90;;;;;;6130981;23;20434;-83
2023/08/12 10:12:34;;;;;;;1.83;1.73;;;24.30;99.90;;;;;;6127615;23;20742;-85
2023/08/12 10:18:03;;;;;;;2.27;2.10;;;24.80;99.90;;;;;;6157051;23;20407;-86
2023/08/12 10:20:37;;;;;;;2.07;1.90;;;24.60;99.90;;;;;;6131496;23;20457;-82
2023/08/12 10:26:26;;;;;;;2.27;2.17;;;25.30;99.90;;;;;;6151095;23;20454;-83
2023/08/12 10:29:04;;;;;;;2.97;2.30;;;24.80;99.90;;;;;;6152984;23;20430;-85
2023/08/12 10:31:31;;;;;;;2.20;2.00;;;24.90;99.90;;;;;;6155487;23;20448;-85
2023/08/12 10:34:03;;;;;;;2.30;2.10;;;25.60;99.90;;;;;;6154314;23;20429;-83
2023/08/12 10:36:56;;;;;;;3.83;2.27;;;26.10;99.90;;;;;;6129585;23;20411;-81
2023/08/12 10:39:38;;;;;;;2.17;2.00;;;25.40;99.90;;;;;;6131615;23;20800;-83
2023/08/12 10:42:50;;;;;;;3.33;2.33;;;25.70;99.90;;;;;;6143762;23;20414;-85
2023/08/12 10:45:54;;;;;;;2.27;2.07;;;25.40;99.90;;;;;;6134265;23;20426;-84
2023/08/12 10:48:57;;;;;;;2.47;2.27;;;25.30;99.90;;;;;;6130457;23;20438;-84
2023/08/12 10:52:03;;;;;;;2.97;2.70;;;25.30;99.90;;;;;;6132473;23;20410;-84
2023/08/12 10:54:53;;;;;;;2.60;2.07;;;26.10;99.90;;;;;;6134299;23;20477;-84
2023/08/12 10:57:42;;;;;;;1.87;1.77;;;25.00;99.90;;;;;;6159041;23;20426;-84
2023/08/12 11:00:55;;;;;;;2.37;2.20;;;24.50;99.90;;;;;;6161498;23;20445;-83
2023/08/12 11:04:03;;;;;;;3.63;2.20;;;24.50;99.90;;;;;;6120925;23;20453;-83
2023/08/12 11:06:54;;;;;;;1.87;1.77;;;24.90;99.90;;;;;;6125609;23;20411;-83
2023/08/12 11:09:27;;;;;;;1.40;1.30;;;25.40;99.90;;;;;;6133633;23;20447;-83
2023/08/12 11:12:06;;;;;;;1.83;1.60;;;25.50;99.90;;;;;;6134743;23;20402;-82
2023/08/12 11:14:55;;;;;;;1.57;1.47;;;25.00;99.90;;;;;;6132416;23;20438;-83
2023/08/12 11:17:37;;;;;;;1.70;1.27;;;25.70;99.90;;;;;;6134016;23;20407;-84
2023/08/12 11:20:19;;;;;;;2.10;1.43;;;25.20;99.90;;;;;;6169727;23;20433;-84
2023/08/12 11:23:17;;;;;;;1.60;1.40;;;26.00;99.90;;;;;;6151466;23;20403;-84
2023/08/12 11:26:09;;;;;;;2.17;1.97;;;25.40;99.90;;;;;;6148849;23;20449;-84
2023/08/12 11:29:14;;;;;;;1.77;1.67;;;25.20;99.90;;;;;;6152157;23;20416;-85
2023/08/12 11:32:08;;;;;;;1.50;1.40;;;24.90;99.90;;;;;;6100924;23;20407;-84
2023/08/12 11:34:43;;;;;;;1.30;1.20;;;26.30;99.90;;;;;;6174109;23;20430;-83
2023/08/12 11:37:32;;;;;;;1.80;1.53;;;25.80;99.90;;;;;;6148139;23;20406;-87
2023/08/12 11:40:29;;;;;;;1.30;1.20;;;25.20;99.90;;;;;;6124498;23;20454;-87
2023/08/12 11:43:39;;;;;;;1.70;1.50;;;25.40;99.90;;;;;;6149153;23;20402;-85
2023/08/12 11:46:42;;;;;;;1.60;1.50;;;25.50;99.90;;;;;;6146520;23;20462;-83
2023/08/12 11:49:21;;;;;;;1.63;1.47;;;26.40;99.90;;;;;;6162049;23;20526;-85
2023/08/12 11:52:37;;;;;;;1.47;1.37;;;26.00;99.90;;;;;;6129349;23;20394;-84
2023/08/12 11:55:41;;;;;;;1.60;1.50;;;25.60;99.90;;;;;;6129660;23;20505;-84
2023/08/12 11:58:34;;;;;;;1.60;1.40;;;25.40;99.90;;;;;;6153189;23;20422;-84
2023/08/12 12:01:45;;;;;;;2.03;1.80;;;25.40;99.90;;;;;;6129066;23;20447;-86
2023/08/12 12:04:40;;;;;;;1.40;1.30;;;25.70;99.90;;;;;;6130677;23;20520;-83
2023/08/12 12:07:31;;;;;;;1.60;1.50;;;25.50;99.90;;;;;;6138471;23;20410;-84
2023/08/12 12:10:07;;;;;;;1.90;1.53;;;26.00;99.90;;;;;;6128989;23;20426;-83
2023/08/12 12:12:52;;;;;;;1.63;1.53;;;25.80;99.90;;;;;;6133033;23;20403;-84
2023/08/12 12:18:50;;;;;;;1.33;1.23;;;25.50;99.90;;;;;;6157360;23;20403;-82
2023/08/12 12:21:43;;;;;;;1.50;1.40;;;25.60;99.90;;;;;;6128775;23;20434;-83
2023/08/12 12:24:35;;;;;;;1.60;1.50;;;25.30;99.90;;;;;;6131007;23;20454;-84
2023/08/12 12:27:27;;;;;;;2.30;1.20;;;25.70;99.90;;;;;;6130198;23;21112;-86
2023/08/12 12:30:32;;;;;;;1.87;1.30;;;25.20;99.90;;;;;;6157256;23;20455;-86
2023/08/12 12:33:22;;;;;;;1.97;1.20;;;25.10;99.90;;;;;;6055961;23;20401;-85
2023/08/12 12:36:58;;;;;;;2.33;1.40;;;25.70;99.90;;;;;;6041839;23;20521;-86
2023/08/12 12:40:01;;;;;;;3.00;1.20;;;25.50;99.90;;;;;;6044464;23;20394;-82
2023/08/12 12:42:58;;;;;;;1.40;1.30;;;25.20;99.90;;;;;;6044568;23;20418;-82
2023/08/12 12:45:28;;;;;;;2.37;1.17;;;25.80;99.90;;;;;;6045494;23;20445;-82
2023/08/12 12:48:04;;;;;;;1.10;1.10;;;25.60;99.90;;;;;;6042809;23;20454;-83
2023/08/12 12:51:29;;;;;;;1.77;1.20;;;24.90;99.90;;;;;;6042972;23;20432;-85
2023/08/12 12:54:12;;;;;;;1.10;1.00;;;25.80;99.90;;;;;;6005726;23;20445;-83
2023/08/12 12:56:50;;;;;;;1.90;1.70;;;26.60;99.90;;;;;;5986621;23;20423;-84
2023/08/12 13:00:22;;;;;;;;;;;;;;;;;;;;;
2023/08/12 13:03:13;;;;;;;1.20;1.10;;;25.60;99.90;;;;;;6063774;23;20441;-83
2023/08/12 13:09:39;;;;;;;1.63;0.90;;;25.60;99.90;;;;;;6098720;23;20420;-83
2023/08/12 13:12:26;;;;;;;3.80;1.10;;;26.10;99.90;;;;;;6105018;23;20949;-84
2023/08/12 13:15:30;;;;;;;;;;;;;;;;;;;;;
2023/08/12 13:18:13;;;;;;;0.80;0.60;;;27.50;99.90;;;;;;6128277;23;20404;-82
2023/08/12 13:21:14;;;;;;;1.50;1.07;;;28.60;99.90;;;;;;6113359;23;20502;-85
2023/08/12 13:24:12;;;;;;;1.63;1.27;;;27.30;99.90;;;;;;6139778;23;20463;-86
2023/08/12 13:27:02;;;;;;;1.67;0.80;;;26.40;99.90;;;;;;6112965;23;20407;-85
2023/08/12 13:29:58;;;;;;;0.70;0.60;;;26.20;99.90;;;;;;6116338;23;20410;-85
2023/08/12 13:32:59;;;;;;;0.80;0.80;;;26.60;99.90;;;;;;6112060;23;20407;-85
2023/08/12 13:35:54;;;;;;;0.70;0.70;;;26.40;99.90;;;;;;6113072;23;20443;-85
2023/08/12 13:38:56;;;;;;;0.93;0.60;;;26.40;99.90;;;;;;6107204;23;20419;-84
2023/08/12 13:41:43;;;;;;;1.10;0.53;;;26.00;99.90;;;;;;6114037;23;20482;-82
2023/08/12 13:51:26;;;;;;;0.93;0.93;;;26.60;99.90;;;;;;6118443;23;20386;-85
2023/08/12 13:56:55;;;;;;;1.00;0.57;;;26.30;99.90;;;;;;6123555;23;20443;-85
2023/08/12 13:59:50;;;;;;;;;;;;;;;;;;;;;
2023/08/12 14:02:33;;;;;;;0.67;0.67;;;26.90;99.90;;;;;;6127247;23;20451;-85
2023/08/12 14:05:27;;;;;;;0.60;0.60;;;26.70;99.90;;;;;;6108673;23;21016;-86
2023/08/12 14:08:10;;;;;;;0.70;0.70;;;26.90;99.90;;;;;;6127788;23;20475;-86
2023/08/12 14:11:05;;;;;;;0.80;0.70;;;27.00;99.30;;;;;;6107371;23;20431;-86
2023/08/12 14:17:12;;;;;;;0.50;0.50;;;26.90;99.90;;;;;;6166038;23;20457;-86
2023/08/12 14:20:23;;;;;;;0.70;0.70;;;26.70;99.70;;;;;;6145755;23;20395;-84
2023/08/12 14:30:02;;;;;;;0.60;0.60;;;26.40;97.90;;;;;;6036110;23;20486;-85
2023/08/12 14:32:58;;;;;;;0.60;0.60;;;26.60;99.40;;;;;;6010512;23;20413;-84
2023/08/12 14:36:28;;;;;;;1.17;0.63;;;26.40;98.20;;;;;;6028803;23;20431;-84
2023/08/12 14:39:17;;;;;;;2.50;0.80;;;26.20;97.20;;;;;;5998976;23;20450;-82
2023/08/12 14:42:08;;;;;;;0.60;0.60;;;27.00;97.30;;;;;;6131320;23;20443;-83
2023/08/12 14:44:56;;;;;;;1.13;0.47;;;26.20;96.10;;;;;;6135755;23;20414;-82
2023/08/12 14:47:51;;;;;;;0.70;0.60;;;26.40;96.90;;;;;;6133739;23;20568;-86
2023/08/12 14:50:31;;;;;;;0.77;0.77;;;26.40;97.00;;;;;;6131560;23;20399;-83
2023/08/12 14:53:28;;;;;;;0.80;0.60;;;26.40;96.70;;;;;;6130716;23;20403;-82
2023/08/12 14:56:07;;;;;;;0.60;0.60;;;26.10;96.60;;;;;;6130038;23;20427;-84
2023/08/12 14:58:46;;;;;;;0.93;0.67;;;26.20;96.40;;;;;;6131219;23;20410;-85
2023/08/12 15:01:48;;;;;;;0.83;0.80;;;26.40;96.60;;;;;;6132531;23;20517;-84
2023/08/12 15:04:29;;;;;;;0.90;0.70;;;25.30;95.70;;;;;;6129850;23;20453;-84
2023/08/12 15:07:18;;;;;;;0.90;0.70;;;26.30;96.90;;;;;;6133458;23;20405;-81
2023/08/12 15:10:12;;;;;;;0.60;0.60;;;27.10;97.00;;;;;;6133903;23;21172;-83
2023/08/12 15:12:56;;;;;;;1.10;0.70;;;26.70;95.90;;;;;;6133038;23;20501;-84
2023/08/12 15:15:51;;;;;;;0.80;0.63;;;26.70;96.60;;;;;;6163541;23;20435;-86
2023/08/12 15:18:43;;;;;;;0.90;0.50;;;26.20;96.60;;;;;;6134468;23;20490;-83
2023/08/12 15:21:27;;;;;;;0.83;0.80;;;26.70;96.00;;;;;;6133140;23;20506;-84
2023/08/12 15:24:08;;;;;;;0.67;0.67;;;26.40;95.10;;;;;;6140153;23;20402;-85
2023/08/12 15:26:53;;;;;;;0.73;0.73;;;26.40;95.70;;;;;;6160110;23;20681;-84
2023/08/12 15:29:46;;;;;;;0.77;0.77;;;26.90;95.00;;;;;;6158027;23;20748;-83
2023/08/12 15:32:30;;;;;;;0.60;0.60;;;27.60;94.90;;;;;;6146785;23;20420;-85
2023/08/12 15:35:20;;;;;;;1.00;0.90;;;27.30;93.80;;;;;;6150404;23;20434;-82
2023/08/12 15:38:01;;;;;;;1.17;0.73;;;26.90;93.90;;;;;;6124879;23;20411;-84
2023/08/12 15:41:15;;;;;;;0.60;0.60;;;26.80;93.80;;;;;;6099723;23;20477;-83
2023/08/12 15:44:15;;;;;;;1.00;1.00;;;26.90;93.30;;;;;;6128667;23;20587;-84
2023/08/12 15:46:56;;;;;;;1.43;0.80;;;26.50;93.90;;;;;;6148915;23;20418;-86
2023/08/12 15:49:55;;;;;;;1.00;0.90;;;26.30;94.20;;;;;;6130111;23;20417;-85
2023/08/12 15:55:48;;;;;;;1.60;0.90;;;26.40;93.30;;;;;;6126038;23;20491;-84
2023/08/12 15:58:33;;;;;;;0.70;0.70;;;27.00;93.70;;;;;;6125604;23;20465;-85
2023/08/12 16:01:43;;;;;;;1.00;0.80;;;26.60;93.20;;;;;;6131339;23;21116;-83
2023/08/12 16:05:13;;;;;;;1.10;1.00;;;27.10;93.80;;;;;;6134579;23;20439;-85
2023/08/12 16:07:54;;;;;;;1.90;0.97;;;26.50;92.90;;;;;;6129652;23;20433;-83
2023/08/12 16:10:54;;;;;;;0.90;0.90;;;26.50;93.40;;;;;;6126812;23;20430;-81